sensor_id;sensor_type;location;lat;lon;timestamp;temperature;humidity
68051;DHT22;54839;51.364;7.246;2022-07-10T00:00:36;14.10;99.90
68051;DHT22;54839;51.364;7.246;2022-07-10T00:03:03;14.10;99.90
68051;DHT22;54839;51.364;7.246;2022-07-10T00:05:30;14.20;99.90
68051;DHT22;54839;51.364;7.246;2022-07-10T00:07:56;14.20;99.90
68051;DHT22;54839;51.364;7.246;2022-07-10T00:10:23;14.20;99.90
68051;DHT22;54839;51.364;7.246;2022-07-10T00:12:50;14.10;99.90
68051;DHT22;54839;51.364;7.246;2022-07-10T00:15:17;14.00;99.90
68051;DHT22;54839;51.364;7.246;2022-07-10T00:17:43;14.00;99.90
68051;DHT22;54839;51.364;7.246;2022-07-10T00:20:10;14.00;99.90
68051;DHT22;54839;51.364;7.246;2022-07-10T00:22:37;14.00;99.90
68051;DHT22;54839;51.364;7.246;2022-07-10T00:25:07;14.10;99.90
68051;DHT22;54839;51.364;7.246;2022-07-10T00:27:34;14.10;99.90
68051;DHT22;54839;51.364;7.246;2022-07-10T00:30:00;14.10;99.90
68051;DHT22;54839;51.364;7.246;2022-07-10T00:32:27;14.10;99.90
68051;DHT22;54839;51.364;7.246;2022-07-10T00:34:53;14.10;99.90
68051;DHT22;54839;51.364;7.246;2022-07-10T00:37:18;14.00;99.90
68051;DHT22;54839;51.364;7.246;2022-07-10T00:39:46;14.10;99.90
68051;DHT22;54839;51.364;7.246;2022-07-10T00:42:13;14.10;99.90
68051;DHT22;54839;51.364;7.246;2022-07-10T00:44:40;14.10;99.90
68051;DHT22;54839;51.364;7.246;2022-07-10T00:47:07;14.10;99.90
68051;DHT22;54839;51.364;7.246;2022-07-10T00:49:38;14.10;99.90
68051;DHT22;54839;51.364;7.246;2022-07-10T00:52:07;14.10;99.90
68051;DHT22;54839;51.364;7.246;2022-07-10T00:54:37;14.10;99.90
68051;DHT22;54839;51.364;7.246;2022-07-10T00:57:04;14.10;99.90
68051;DHT22;54839;51.364;7.246;2022-07-10T00:59:34;14.10;99.90
68051;DHT22;54839;51.364;7.246;2022-07-10T01:02:01;14.10;99.90
68051;DHT22;54839;51.364;7.246;2022-07-10T01:04:26;14.10;99.90
68051;DHT22;54839;51.364;7.246;2022-07-10T01:06:52;14.10;99.90
68051;DHT22;54839;51.364;7.246;2022-07-10T01:09:18;14.10;99.90
68051;DHT22;54839;51.364;7.246;2022-07-10T01:11:44;14.10;99.90
68051;DHT22;54839;51.364;7.246;2022-07-10T01:14:10;14.20;99.90
68051;DHT22;54839;51.364;7.246;2022-07-10T01:16:37;14.10;99.90
68051;DHT22;54839;51.364;7.246;2022-07-10T01:19:03;14.10;99.90
68051;DHT22;54839;51.364;7.246;2022-07-10T01:21:32;14.00;99.90
68051;DHT22;54839;51.364;7.246;2022-07-10T01:23:58;14.00;99.90
68051;DHT22;54839;51.364;7.246;2022-07-10T01:26:24;14.00;99.90
68051;DHT22;54839;51.364;7.246;2022-07-10T01:28:51;13.90;99.90
68051;DHT22;54839;51.364;7.246;2022-07-10T01:31:18;13.90;99.90
68051;DHT22;54839;51.364;7.246;2022-07-10T01:33:45;14.00;99.90
68051;DHT22;54839;51.364;7.246;2022-07-10T01:36:11;13.90;99.90
68051;DHT22;54839;51.364;7.246;2022-07-10T01:38:38;14.00;99.90
68051;DHT22;54839;51.364;7.246;2022-07-10T01:41:04;13.90;99.90
68051;DHT22;54839;51.364;7.246;2022-07-10T01:43:29;14.00;99.90
68051;DHT22;54839;51.364;7.246;2022-07-10T01:45:55;14.00;99.90
68051;DHT22;54839;51.364;7.246;2022-07-10T01:48:21;13.90;99.90
68051;DHT22;54839;51.364;7.246;2022-07-10T01:50:47;14.00;99.90
68051;DHT22;54839;51.364;7.246;2022-07-10T01:53:12;14.00;99.90
68051;DHT22;54839;51.364;7.246;2022-07-10T01:55:38;13.90;99.90
68051;DHT22;54839;51.364;7.246;2022-07-10T01:58:04;13.90;99.90
68051;DHT22;54839;51.364;7.246;2022-07-10T02:00:29;13.90;99.90
68051;DHT22;54839;51.364;7.246;2022-07-10T02:02:55;13.90;99.90
68051;DHT22;54839;51.364;7.246;2022-07-10T02:05:39;13.80;99.90
68051;DHT22;54839;51.364;7.246;2022-07-10T02:08:05;13.70;99.90
68051;DHT22;54839;51.364;7.246;2022-07-10T02:10:31;13.80;99.90
68051;DHT22;54839;51.364;7.246;2022-07-10T02:12:58;13.80;99.90
68051;DHT22;54839;51.364;7.246;2022-07-10T02:15:23;13.80;99.90
68051;DHT22;54839;51.364;7.246;2022-07-10T02:17:49;13.80;99.90
68051;DHT22;54839;51.364;7.246;2022-07-10T02:20:15;13.80;99.90
68051;DHT22;54839;51.364;7.246;2022-07-10T02:22:41;13.80;99.90
68051;DHT22;54839;51.364;7.246;2022-07-10T02:25:07;13.70;99.90
68051;DHT22;54839;51.364;7.246;2022-07-10T02:27:33;13.70;99.90
68051;DHT22;54839;51.364;7.246;2022-07-10T02:29:58;13.60;99.90
68051;DHT22;54839;51.364;7.246;2022-07-10T02:32:24;13.60;99.90
68051;DHT22;54839;51.364;7.246;2022-07-10T02:34:49;13.50;99.90
68051;DHT22;54839;51.364;7.246;2022-07-10T02:37:15;13.60;99.90
68051;DHT22;54839;51.364;7.246;2022-07-10T02:39:41;13.50;99.90
68051;DHT22;54839;51.364;7.246;2022-07-10T02:42:07;13.50;99.90
68051;DHT22;54839;51.364;7.246;2022-07-10T02:44:32;13.30;99.90
68051;DHT22;54839;51.364;7.246;2022-07-10T02:46:58;13.30;99.90
68051;DHT22;54839;51.364;7.246;2022-07-10T02:49:24;13.20;99.90
68051;DHT22;54839;51.364;7.246;2022-07-10T02:51:50;13.20;99.90
68051;DHT22;54839;51.364;7.246;2022-07-10T02:54:16;13.10;99.90
68051;DHT22;54839;51.364;7.246;2022-07-10T02:56:42;13.10;99.90
68051;DHT22;54839;51.364;7.246;2022-07-10T02:59:07;13.10;99.90
68051;DHT22;54839;51.364;7.246;2022-07-10T03:01:33;13.10;99.90
68051;DHT22;54839;51.364;7.246;2022-07-10T03:03:59;13.00;99.90
68051;DHT22;54839;51.364;7.246;2022-07-10T03:06:26;13.00;99.90
68051;DHT22;54839;51.364;7.246;2022-07-10T03:08:52;12.90;99.90
68051;DHT22;54839;51.364;7.246;2022-07-10T03:11:18;12.90;99.90
68051;DHT22;54839;51.364;7.246;2022-07-10T03:13:44;13.00;99.90
68051;DHT22;54839;51.364;7.246;2022-07-10T03:16:09;13.00;99.90
68051;DHT22;54839;51.364;7.246;2022-07-10T03:18:35;12.90;99.90
68051;DHT22;54839;51.364;7.246;2022-07-10T03:21:01;13.00;99.90
68051;DHT22;54839;51.364;7.246;2022-07-10T03:23:26;13.00;99.90
68051;DHT22;54839;51.364;7.246;2022-07-10T03:25:52;13.10;99.90
68051;DHT22;54839;51.364;7.246;2022-07-10T03:28:18;13.20;99.90
68051;DHT22;54839;51.364;7.246;2022-07-10T03:30:43;13.20;99.90
68051;DHT22;54839;51.364;7.246;2022-07-10T03:33:09;13.30;99.90
68051;DHT22;54839;51.364;7.246;2022-07-10T03:35:35;13.20;99.90
68051;DHT22;54839;51.364;7.246;2022-07-10T03:38:00;13.30;99.90
68051;DHT22;54839;51.364;7.246;2022-07-10T03:40:27;13.30;99.90
68051;DHT22;54839;51.364;7.246;2022-07-10T03:42:52;13.30;99.90
68051;DHT22;54839;51.364;7.246;2022-07-10T03:45:18;13.30;99.90
68051;DHT22;54839;51.364;7.246;2022-07-10T03:47:44;13.20;99.90
68051;DHT22;54839;51.364;7.246;2022-07-10T03:50:10;13.10;99.90
68051;DHT22;54839;51.364;7.246;2022-07-10T03:52:35;13.10;99.90
68051;DHT22;54839;51.364;7.246;2022-07-10T03:55:02;13.40;99.90
68051;DHT22;54839;51.364;7.246;2022-07-10T03:57:28;13.20;99.90
68051;DHT22;54839;51.364;7.246;2022-07-10T04:00:13;13.30;99.90
68051;DHT22;54839;51.364;7.246;2022-07-10T04:02:39;13.20;99.90
68051;DHT22;54839;51.364;7.246;2022-07-10T04:05:08;13.30;99.90
68051;DHT22;54839;51.364;7.246;2022-07-10T04:07:35;13.30;99.90
68051;DHT22;54839;51.364;7.246;2022-07-10T04:10:02;13.20;99.90
68051;DHT22;54839;51.364;7.246;2022-07-10T04:12:28;13.30;99.90
68051;DHT22;54839;51.364;7.246;2022-07-10T04:14:53;13.30;99.90
68051;DHT22;54839;51.364;7.246;2022-07-10T04:17:19;13.40;99.90
68051;DHT22;54839;51.364;7.246;2022-07-10T04:19:45;13.40;99.90
68051;DHT22;54839;51.364;7.246;2022-07-10T04:22:11;13.60;99.90
68051;DHT22;54839;51.364;7.246;2022-07-10T04:24:37;13.50;99.90
68051;DHT22;54839;51.364;7.246;2022-07-10T04:27:03;13.50;99.90
68051;DHT22;54839;51.364;7.246;2022-07-10T04:29:28;13.50;99.90
68051;DHT22;54839;51.364;7.246;2022-07-10T04:31:54;13.70;99.90
68051;DHT22;54839;51.364;7.246;2022-07-10T04:34:20;13.80;99.90
68051;DHT22;54839;51.364;7.246;2022-07-10T04:36:45;13.70;99.90
68051;DHT22;54839;51.364;7.246;2022-07-10T04:39:11;13.90;99.90
68051;DHT22;54839;51.364;7.246;2022-07-10T04:41:37;13.80;99.90
68051;DHT22;54839;51.364;7.246;2022-07-10T04:44:03;13.70;99.90
68051;DHT22;54839;51.364;7.246;2022-07-10T04:46:29;13.70;99.90
68051;DHT22;54839;51.364;7.246;2022-07-10T04:48:54;13.60;99.90
68051;DHT22;54839;51.364;7.246;2022-07-10T04:51:20;13.60;99.90
68051;DHT22;54839;51.364;7.246;2022-07-10T04:53:45;13.70;99.90
68051;DHT22;54839;51.364;7.246;2022-07-10T04:56:11;13.80;99.90
68051;DHT22;54839;51.364;7.246;2022-07-10T04:58:37;13.80;99.90
68051;DHT22;54839;51.364;7.246;2022-07-10T05:01:02;13.80;99.90
68051;DHT22;54839;51.364;7.246;2022-07-10T05:03:28;13.70;99.90
68051;DHT22;54839;51.364;7.246;2022-07-10T05:05:54;13.70;99.90
68051;DHT22;54839;51.364;7.246;2022-07-10T05:08:20;13.50;99.90
68051;DHT22;54839;51.364;7.246;2022-07-10T05:10:45;13.50;99.90
68051;DHT22;54839;51.364;7.246;2022-07-10T05:13:11;13.50;99.90
68051;DHT22;54839;51.364;7.246;2022-07-10T05:15:37;13.50;99.90
68051;DHT22;54839;51.364;7.246;2022-07-10T05:18:03;13.50;99.90
68051;DHT22;54839;51.364;7.246;2022-07-10T05:20:29;13.60;99.90
68051;DHT22;54839;51.364;7.246;2022-07-10T05:22:55;13.60;99.90
68051;DHT22;54839;51.364;7.246;2022-07-10T05:25:21;13.50;99.90
68051;DHT22;54839;51.364;7.246;2022-07-10T05:27:47;13.60;99.90
68051;DHT22;54839;51.364;7.246;2022-07-10T05:30:13;13.80;99.90
68051;DHT22;54839;51.364;7.246;2022-07-10T05:32:45;14.10;99.90
68051;DHT22;54839;51.364;7.246;2022-07-10T05:35:13;14.20;99.90
68051;DHT22;54839;51.364;7.246;2022-07-10T05:37:38;14.40;99.90
68051;DHT22;54839;51.364;7.246;2022-07-10T05:40:05;14.60;99.90
68051;DHT22;54839;51.364;7.246;2022-07-10T05:42:31;14.60;99.90
68051;DHT22;54839;51.364;7.246;2022-07-10T05:44:56;14.60;99.90
68051;DHT22;54839;51.364;7.246;2022-07-10T05:47:22;14.70;99.90
68051;DHT22;54839;51.364;7.246;2022-07-10T05:49:48;14.70;99.90
68051;DHT22;54839;51.364;7.246;2022-07-10T05:52:13;14.60;99.90
68051;DHT22;54839;51.364;7.246;2022-07-10T05:54:39;14.70;99.90
68051;DHT22;54839;51.364;7.246;2022-07-10T05:57:05;14.60;99.90
68051;DHT22;54839;51.364;7.246;2022-07-10T05:59:33;14.40;99.90
68051;DHT22;54839;51.364;7.246;2022-07-10T06:02:00;14.40;99.90
68051;DHT22;54839;51.364;7.246;2022-07-10T06:04:26;14.50;99.90
68051;DHT22;54839;51.364;7.246;2022-07-10T06:06:52;14.60;99.90
68051;DHT22;54839;51.364;7.246;2022-07-10T06:09:18;14.60;99.90
68051;DHT22;54839;51.364;7.246;2022-07-10T06:11:44;14.50;99.90
68051;DHT22;54839;51.364;7.246;2022-07-10T06:14:12;14.60;99.90
68051;DHT22;54839;51.364;7.246;2022-07-10T06:16:37;14.70;99.90
68051;DHT22;54839;51.364;7.246;2022-07-10T06:19:03;14.80;99.90
68051;DHT22;54839;51.364;7.246;2022-07-10T06:21:29;14.90;99.90
68051;DHT22;54839;51.364;7.246;2022-07-10T06:23:54;15.10;99.90
68051;DHT22;54839;51.364;7.246;2022-07-10T06:26:20;15.20;99.90
68051;DHT22;54839;51.364;7.246;2022-07-10T06:28:46;15.50;99.90
68051;DHT22;54839;51.364;7.246;2022-07-10T06:31:11;15.50;99.90
68051;DHT22;54839;51.364;7.246;2022-07-10T06:33:37;15.60;99.90
68051;DHT22;54839;51.364;7.246;2022-07-10T06:36:03;15.50;99.90
68051;DHT22;54839;51.364;7.246;2022-07-10T06:38:29;15.60;99.90
68051;DHT22;54839;51.364;7.246;2022-07-10T06:40:55;15.90;99.90
68051;DHT22;54839;51.364;7.246;2022-07-10T06:43:20;16.10;99.90
68051;DHT22;54839;51.364;7.246;2022-07-10T06:45:46;15.90;99.90
68051;DHT22;54839;51.364;7.246;2022-07-10T06:48:12;16.00;99.90
68051;DHT22;54839;51.364;7.246;2022-07-10T06:50:38;16.20;99.90
68051;DHT22;54839;51.364;7.246;2022-07-10T06:53:05;16.40;99.90
68051;DHT22;54839;51.364;7.246;2022-07-10T06:55:31;16.20;99.90
68051;DHT22;54839;51.364;7.246;2022-07-10T06:57:57;16.10;99.90
68051;DHT22;54839;51.364;7.246;2022-07-10T07:00:24;16.00;99.90
68051;DHT22;54839;51.364;7.246;2022-07-10T07:02:50;16.10;99.90
68051;DHT22;54839;51.364;7.246;2022-07-10T07:05:16;15.80;99.90
68051;DHT22;54839;51.364;7.246;2022-07-10T07:07:42;15.70;99.90
68051;DHT22;54839;51.364;7.246;2022-07-10T07:10:09;15.40;99.90
68051;DHT22;54839;51.364;7.246;2022-07-10T07:12:35;15.50;99.90
68051;DHT22;54839;51.364;7.246;2022-07-10T07:15:00;15.60;99.90
68051;DHT22;54839;51.364;7.246;2022-07-10T07:17:26;15.70;99.90
68051;DHT22;54839;51.364;7.246;2022-07-10T07:20:00;15.30;99.90
68051;DHT22;54839;51.364;7.246;2022-07-10T07:22:45;15.50;99.90
68051;DHT22;54839;51.364;7.246;2022-07-10T07:25:29;15.70;99.90
68051;DHT22;54839;51.364;7.246;2022-07-10T07:27:55;15.80;99.90
68051;DHT22;54839;51.364;7.246;2022-07-10T07:30:21;15.90;99.90
68051;DHT22;54839;51.364;7.246;2022-07-10T07:32:46;15.90;99.90
68051;DHT22;54839;51.364;7.246;2022-07-10T07:35:14;16.00;99.90
68051;DHT22;54839;51.364;7.246;2022-07-10T07:37:45;15.70;99.90
68051;DHT22;54839;51.364;7.246;2022-07-10T07:40:14;15.40;99.90
68051;DHT22;54839;51.364;7.246;2022-07-10T07:42:40;15.20;99.90
68051;DHT22;54839;51.364;7.246;2022-07-10T07:45:06;14.80;99.90
68051;DHT22;54839;51.364;7.246;2022-07-10T07:47:46;14.60;99.90
68051;DHT22;54839;51.364;7.246;2022-07-10T07:50:15;14.70;99.90
68051;DHT22;54839;51.364;7.246;2022-07-10T07:52:50;14.80;99.90
68051;DHT22;54839;51.364;7.246;2022-07-10T07:55:18;15.00;99.90
68051;DHT22;54839;51.364;7.246;2022-07-10T07:57:44;15.10;99.90
68051;DHT22;54839;51.364;7.246;2022-07-10T08:00:12;15.20;99.90
68051;DHT22;54839;51.364;7.246;2022-07-10T08:02:38;15.20;99.90
68051;DHT22;54839;51.364;7.246;2022-07-10T08:05:04;15.10;99.90
68051;DHT22;54839;51.364;7.246;2022-07-10T08:07:45;15.00;99.90
68051;DHT22;54839;51.364;7.246;2022-07-10T08:10:16;15.00;99.90
68051;DHT22;54839;51.364;7.246;2022-07-10T08:12:42;15.10;99.90
68051;DHT22;54839;51.364;7.246;2022-07-10T08:15:10;15.10;99.90
68051;DHT22;54839;51.364;7.246;2022-07-10T08:17:36;15.00;99.90
68051;DHT22;54839;51.364;7.246;2022-07-10T08:20:03;15.10;99.90
68051;DHT22;54839;51.364;7.246;2022-07-10T08:22:29;15.20;99.90
68051;DHT22;54839;51.364;7.246;2022-07-10T08:24:55;15.30;99.90
68051;DHT22;54839;51.364;7.246;2022-07-10T08:27:22;15.50;99.90
68051;DHT22;54839;51.364;7.246;2022-07-10T08:29:47;15.70;99.90
68051;DHT22;54839;51.364;7.246;2022-07-10T08:32:13;15.90;99.90
68051;DHT22;54839;51.364;7.246;2022-07-10T08:34:39;15.90;99.90
68051;DHT22;54839;51.364;7.246;2022-07-10T08:37:05;15.90;99.90
68051;DHT22;54839;51.364;7.246;2022-07-10T08:39:31;15.70;99.90
68051;DHT22;54839;51.364;7.246;2022-07-10T08:41:57;15.60;99.90
68051;DHT22;54839;51.364;7.246;2022-07-10T08:44:23;15.30;99.90
68051;DHT22;54839;51.364;7.246;2022-07-10T08:46:49;15.30;99.90
68051;DHT22;54839;51.364;7.246;2022-07-10T08:49:16;15.60;99.90
68051;DHT22;54839;51.364;7.246;2022-07-10T08:52:04;15.60;99.90
68051;DHT22;54839;51.364;7.246;2022-07-10T08:54:32;15.50;99.90
68051;DHT22;54839;51.364;7.246;2022-07-10T08:57:01;15.20;99.90
68051;DHT22;54839;51.364;7.246;2022-07-10T08:59:28;15.00;99.90
68051;DHT22;54839;51.364;7.246;2022-07-10T09:01:55;14.90;99.90
68051;DHT22;54839;51.364;7.246;2022-07-10T09:04:23;15.10;99.90
68051;DHT22;54839;51.364;7.246;2022-07-10T09:06:54;15.10;99.90
68051;DHT22;54839;51.364;7.246;2022-07-10T09:09:20;15.00;99.90
68051;DHT22;54839;51.364;7.246;2022-07-10T09:11:46;14.90;99.90
68051;DHT22;54839;51.364;7.246;2022-07-10T09:14:15;15.00;99.90
68051;DHT22;54839;51.364;7.246;2022-07-10T09:16:43;14.60;99.90
68051;DHT22;54839;51.364;7.246;2022-07-10T09:19:22;14.90;99.90
68051;DHT22;54839;51.364;7.246;2022-07-10T09:21:50;15.50;99.90
68051;DHT22;54839;51.364;7.246;2022-07-10T09:24:17;15.70;99.90
68051;DHT22;54839;51.364;7.246;2022-07-10T09:26:58;15.90;99.90
68051;DHT22;54839;51.364;7.246;2022-07-10T09:29:32;16.00;99.90
68051;DHT22;54839;51.364;7.246;2022-07-10T09:32:00;16.20;99.90
68051;DHT22;54839;51.364;7.246;2022-07-10T09:34:46;16.20;99.90
68051;DHT22;54839;51.364;7.246;2022-07-10T09:37:21;15.90;99.90
68051;DHT22;54839;51.364;7.246;2022-07-10T09:40:16;15.80;99.90
68051;DHT22;54839;51.364;7.246;2022-07-10T09:42:44;15.60;99.90
68051;DHT22;54839;51.364;7.246;2022-07-10T09:53:01;16.60;99.90
68051;DHT22;54839;51.364;7.246;2022-07-10T09:55:28;16.90;99.90
68051;DHT22;54839;51.364;7.246;2022-07-10T10:00:32;17.30;99.90
68051;DHT22;54839;51.364;7.246;2022-07-10T10:03:06;17.50;99.90
68051;DHT22;54839;51.364;7.246;2022-07-10T10:10:40;16.70;99.90
68051;DHT22;54839;51.364;7.246;2022-07-10T10:13:10;16.40;99.90
68051;DHT22;54839;51.364;7.246;2022-07-10T10:15:37;16.30;99.90
68051;DHT22;54839;51.364;7.246;2022-07-10T10:18:03;16.00;99.90
68051;DHT22;54839;51.364;7.246;2022-07-10T10:20:33;15.80;99.90
68051;DHT22;54839;51.364;7.246;2022-07-10T10:23:04;15.60;99.90
68051;DHT22;54839;51.364;7.246;2022-07-10T10:25:32;15.70;99.90
68051;DHT22;54839;51.364;7.246;2022-07-10T10:28:00;15.50;99.90
68051;DHT22;54839;51.364;7.246;2022-07-10T10:30:27;15.50;99.90
68051;DHT22;54839;51.364;7.246;2022-07-10T10:32:52;16.10;99.90
68051;DHT22;54839;51.364;7.246;2022-07-10T10:35:46;16.40;99.90
68051;DHT22;54839;51.364;7.246;2022-07-10T10:38:13;16.60;99.90
68051;DHT22;54839;51.364;7.246;2022-07-10T10:40:39;16.80;99.90
68051;DHT22;54839;51.364;7.246;2022-07-10T10:43:19;16.70;99.90
68051;DHT22;54839;51.364;7.246;2022-07-10T10:45:46;16.60;99.90
68051;DHT22;54839;51.364;7.246;2022-07-10T10:48:16;16.50;99.90
68051;DHT22;54839;51.364;7.246;2022-07-10T10:50:47;16.40;99.90
68051;DHT22;54839;51.364;7.246;2022-07-10T10:58:28;16.60;99.90
68051;DHT22;54839;51.364;7.246;2022-07-10T11:03:30;16.90;99.90
68051;DHT22;54839;51.364;7.246;2022-07-10T11:05:57;16.70;99.90
68051;DHT22;54839;51.364;7.246;2022-07-10T11:08:36;16.50;99.90
68051;DHT22;54839;51.364;7.246;2022-07-10T11:13:57;16.10;99.90
68051;DHT22;54839;51.364;7.246;2022-07-10T11:16:23;16.30;99.90
68051;DHT22;54839;51.364;7.246;2022-07-10T11:18:53;16.50;99.90
68051;DHT22;54839;51.364;7.246;2022-07-10T11:21:24;16.70;99.90
68051;DHT22;54839;51.364;7.246;2022-07-10T11:27:52;17.00;99.90
68051;DHT22;54839;51.364;7.246;2022-07-10T11:30:00;17.20;99.90
68051;DHT22;54839;51.364;7.246;2022-07-10T11:32:27;17.60;99.90
68051;DHT22;54839;51.364;7.246;2022-07-10T11:34:54;17.90;99.90
68051;DHT22;54839;51.364;7.246;2022-07-10T11:37:19;17.90;99.90
68051;DHT22;54839;51.364;7.246;2022-07-10T11:39:46;17.20;99.90
68051;DHT22;54839;51.364;7.246;2022-07-10T11:42:11;17.00;99.90
68051;DHT22;54839;51.364;7.246;2022-07-10T11:44:37;16.90;99.90
68051;DHT22;54839;51.364;7.246;2022-07-10T11:47:04;16.70;99.90
68051;DHT22;54839;51.364;7.246;2022-07-10T11:49:30;17.00;99.90
68051;DHT22;54839;51.364;7.246;2022-07-10T11:52:01;17.10;99.90
68051;DHT22;54839;51.364;7.246;2022-07-10T11:54:27;17.10;99.90
68051;DHT22;54839;51.364;7.246;2022-07-10T11:56:53;17.20;99.90
68051;DHT22;54839;51.364;7.246;2022-07-10T11:59:27;16.90;99.90
68051;DHT22;54839;51.364;7.246;2022-07-10T12:01:55;16.70;99.90
68051;DHT22;54839;51.364;7.246;2022-07-10T12:04:22;16.90;99.90
68051;DHT22;54839;51.364;7.246;2022-07-10T12:06:51;17.20;99.90
68051;DHT22;54839;51.364;7.246;2022-07-10T12:09:18;17.30;99.90
68051;DHT22;54839;51.364;7.246;2022-07-10T12:12:04;17.20;99.90
68051;DHT22;54839;51.364;7.246;2022-07-10T12:14:31;17.30;99.90
68051;DHT22;54839;51.364;7.246;2022-07-10T12:16:58;16.90;99.90
68051;DHT22;54839;51.364;7.246;2022-07-10T12:19:28;16.70;99.90
68051;DHT22;54839;51.364;7.246;2022-07-10T12:21:56;16.40;99.90
68051;DHT22;54839;51.364;7.246;2022-07-10T12:24:22;16.30;99.90
68051;DHT22;54839;51.364;7.246;2022-07-10T12:26:50;15.80;99.90
68051;DHT22;54839;51.364;7.246;2022-07-10T12:31:55;16.00;99.90
68051;DHT22;54839;51.364;7.246;2022-07-10T12:37:10;16.60;99.90
68051;DHT22;54839;51.364;7.246;2022-07-10T12:39:37;16.50;99.90
68051;DHT22;54839;51.364;7.246;2022-07-10T12:42:05;16.30;99.90
68051;DHT22;54839;51.364;7.246;2022-07-10T12:47:02;15.90;99.90
68051;DHT22;54839;51.364;7.246;2022-07-10T12:49:28;15.70;99.90
68051;DHT22;54839;51.364;7.246;2022-07-10T12:51:55;16.00;99.90
68051;DHT22;54839;51.364;7.246;2022-07-10T12:54:35;16.60;99.90
68051;DHT22;54839;51.364;7.246;2022-07-10T12:57:01;18.10;99.90
68051;DHT22;54839;51.364;7.246;2022-07-10T12:59:27;18.70;99.90
68051;DHT22;54839;51.364;7.246;2022-07-10T13:01:56;19.10;99.90
68051;DHT22;54839;51.364;7.246;2022-07-10T13:04:25;19.40;99.90
68051;DHT22;54839;51.364;7.246;2022-07-10T13:06:52;19.30;99.90
68051;DHT22;54839;51.364;7.246;2022-07-10T13:09:25;18.80;99.90
68051;DHT22;54839;51.364;7.246;2022-07-10T13:11:54;18.30;99.90
68051;DHT22;54839;51.364;7.246;2022-07-10T13:14:20;17.90;99.90
68051;DHT22;54839;51.364;7.246;2022-07-10T13:16:46;18.40;99.90
68051;DHT22;54839;51.364;7.246;2022-07-10T13:19:13;19.20;99.90
68051;DHT22;54839;51.364;7.246;2022-07-10T13:21:39;19.60;99.90
68051;DHT22;54839;51.364;7.246;2022-07-10T13:24:05;20.10;99.90
68051;DHT22;54839;51.364;7.246;2022-07-10T13:26:31;21.70;99.90
68051;DHT22;54839;51.364;7.246;2022-07-10T13:28:58;22.80;99.90
68051;DHT22;54839;51.364;7.246;2022-07-10T13:31:24;21.50;99.90
68051;DHT22;54839;51.364;7.246;2022-07-10T13:33:50;20.10;99.90
68051;DHT22;54839;51.364;7.246;2022-07-10T13:36:16;19.30;99.90
68051;DHT22;54839;51.364;7.246;2022-07-10T13:38:42;19.50;99.90
68051;DHT22;54839;51.364;7.246;2022-07-10T13:41:08;20.10;99.90
68051;DHT22;54839;51.364;7.246;2022-07-10T13:43:34;19.80;99.90
68051;DHT22;54839;51.364;7.246;2022-07-10T13:46:00;18.80;99.90
68051;DHT22;54839;51.364;7.246;2022-07-10T13:48:27;18.50;99.90
68051;DHT22;54839;51.364;7.246;2022-07-10T13:50:53;18.50;99.90
68051;DHT22;54839;51.364;7.246;2022-07-10T13:53:20;18.80;99.90
68051;DHT22;54839;51.364;7.246;2022-07-10T13:55:47;18.70;99.90
68051;DHT22;54839;51.364;7.246;2022-07-10T13:58:14;18.20;99.90
68051;DHT22;54839;51.364;7.246;2022-07-10T14:00:39;18.00;99.90
68051;DHT22;54839;51.364;7.246;2022-07-10T14:03:05;17.80;99.90
68051;DHT22;54839;51.364;7.246;2022-07-10T14:05:33;17.40;99.90
68051;DHT22;54839;51.364;7.246;2022-07-10T14:07:59;17.20;99.90
68051;DHT22;54839;51.364;7.246;2022-07-10T14:10:25;17.50;99.90
68051;DHT22;54839;51.364;7.246;2022-07-10T14:12:53;17.60;99.90
68051;DHT22;54839;51.364;7.246;2022-07-10T14:15:19;17.90;99.90
68051;DHT22;54839;51.364;7.246;2022-07-10T14:17:45;18.70;99.90
68051;DHT22;54839;51.364;7.246;2022-07-10T14:20:11;20.60;99.90
68051;DHT22;54839;51.364;7.246;2022-07-10T14:22:37;20.90;99.90
68051;DHT22;54839;51.364;7.246;2022-07-10T14:25:05;20.50;99.90
68051;DHT22;54839;51.364;7.246;2022-07-10T14:27:30;19.80;99.90
68051;DHT22;54839;51.364;7.246;2022-07-10T14:29:58;19.20;99.90
68051;DHT22;54839;51.364;7.246;2022-07-10T14:32:24;18.80;99.90
68051;DHT22;54839;51.364;7.246;2022-07-10T14:34:50;18.50;99.90
68051;DHT22;54839;51.364;7.246;2022-07-10T14:37:15;18.40;99.90
68051;DHT22;54839;51.364;7.246;2022-07-10T14:39:41;18.10;99.90
68051;DHT22;54839;51.364;7.246;2022-07-10T14:42:08;17.70;99.90
68051;DHT22;54839;51.364;7.246;2022-07-10T14:44:35;17.80;99.90
68051;DHT22;54839;51.364;7.246;2022-07-10T14:47:01;17.80;99.90
68051;DHT22;54839;51.364;7.246;2022-07-10T14:49:26;17.90;99.90
68051;DHT22;54839;51.364;7.246;2022-07-10T14:51:52;17.90;99.90
68051;DHT22;54839;51.364;7.246;2022-07-10T14:54:20;17.80;99.90
68051;DHT22;54839;51.364;7.246;2022-07-10T14:56:45;17.70;99.90
68051;DHT22;54839;51.364;7.246;2022-07-10T14:59:11;17.70;99.90
68051;DHT22;54839;51.364;7.246;2022-07-10T15:01:37;17.50;99.90
68051;DHT22;54839;51.364;7.246;2022-07-10T15:04:02;17.40;99.90
68051;DHT22;54839;51.364;7.246;2022-07-10T15:06:28;17.30;99.90
68051;DHT22;54839;51.364;7.246;2022-07-10T15:08:54;17.10;99.90
68051;DHT22;54839;51.364;7.246;2022-07-10T15:11:20;17.10;99.90
68051;DHT22;54839;51.364;7.246;2022-07-10T15:13:52;17.10;99.90
68051;DHT22;54839;51.364;7.246;2022-07-10T15:16:24;17.10;99.90
68051;DHT22;54839;51.364;7.246;2022-07-10T15:18:51;17.00;99.90
68051;DHT22;54839;51.364;7.246;2022-07-10T15:21:17;17.10;99.90
68051;DHT22;54839;51.364;7.246;2022-07-10T15:23:43;17.30;99.90
68051;DHT22;54839;51.364;7.246;2022-07-10T15:26:08;17.80;99.90
68051;DHT22;54839;51.364;7.246;2022-07-10T15:28:34;18.30;99.90
68051;DHT22;54839;51.364;7.246;2022-07-10T15:31:00;19.10;99.90
68051;DHT22;54839;51.364;7.246;2022-07-10T15:33:27;19.80;99.90
68051;DHT22;54839;51.364;7.246;2022-07-10T15:35:52;20.80;99.90
68051;DHT22;54839;51.364;7.246;2022-07-10T15:38:18;21.30;99.90
68051;DHT22;54839;51.364;7.246;2022-07-10T15:40:45;21.00;99.90
68051;DHT22;54839;51.364;7.246;2022-07-10T15:43:10;20.00;99.90
68051;DHT22;54839;51.364;7.246;2022-07-10T15:45:36;19.10;99.90
68051;DHT22;54839;51.364;7.246;2022-07-10T15:48:01;18.90;99.90
68051;DHT22;54839;51.364;7.246;2022-07-10T15:50:27;18.50;99.90
68051;DHT22;54839;51.364;7.246;2022-07-10T15:52:53;18.40;99.90
68051;DHT22;54839;51.364;7.246;2022-07-10T15:55:18;18.40;99.90
68051;DHT22;54839;51.364;7.246;2022-07-10T15:57:44;18.60;99.90
68051;DHT22;54839;51.364;7.246;2022-07-10T16:00:10;18.60;99.90
68051;DHT22;54839;51.364;7.246;2022-07-10T16:02:36;18.80;99.90
68051;DHT22;54839;51.364;7.246;2022-07-10T16:05:03;18.80;99.90
68051;DHT22;54839;51.364;7.246;2022-07-10T16:07:29;18.70;99.90